sensor_id;sensor_type;location;lat;lon;timestamp;temperature;humidity
48579;DHT22;34357;51.948;6.132;2022-09-13T00:00:16;18.10;84.20
48579;DHT22;34357;51.948;6.132;2022-09-13T00:02:41;18.10;84.10
48579;DHT22;34357;51.948;6.132;2022-09-13T00:05:07;18.00;84.10
48579;DHT22;34357;51.948;6.132;2022-09-13T00:07:33;18.00;84.00
48579;DHT22;34357;51.948;6.132;2022-09-13T00:09:59;18.00;84.20
48579;DHT22;34357;51.948;6.132;2022-09-13T00:12:24;18.00;84.30
48579;DHT22;34357;51.948;6.132;2022-09-13T00:14:50;18.00;84.40
48579;DHT22;34357;51.948;6.132;2022-09-13T00:17:16;18.00;84.40
48579;DHT22;34357;51.948;6.132;2022-09-13T00:19:41;18.00;84.30
48579;DHT22;34357;51.948;6.132;2022-09-13T00:22:07;18.00;84.20
48579;DHT22;34357;51.948;6.132;2022-09-13T00:24:33;18.00;84.50
48579;DHT22;34357;51.948;6.132;2022-09-13T00:26:59;18.00;84.50
48579;DHT22;34357;51.948;6.132;2022-09-13T00:29:26;18.00;84.80
48579;DHT22;34357;51.948;6.132;2022-09-13T00:31:52;18.00;84.70
48579;DHT22;34357;51.948;6.132;2022-09-13T00:34:18;18.00;84.80
48579;DHT22;34357;51.948;6.132;2022-09-13T00:36:43;18.00;84.80
48579;DHT22;34357;51.948;6.132;2022-09-13T00:39:10;18.00;84.70
48579;DHT22;34357;51.948;6.132;2022-09-13T00:41:36;18.00;84.60
48579;DHT22;34357;51.948;6.132;2022-09-13T00:44:03;18.00;84.60
48579;DHT22;34357;51.948;6.132;2022-09-13T00:46:46;18.00;84.60
48579;DHT22;34357;51.948;6.132;2022-09-13T00:49:19;18.00;84.60
48579;DHT22;34357;51.948;6.132;2022-09-13T00:51:53;18.10;84.60
48579;DHT22;34357;51.948;6.132;2022-09-13T00:54:24;18.00;84.50
48579;DHT22;34357;51.948;6.132;2022-09-13T00:56:54;18.10;84.30
48579;DHT22;34357;51.948;6.132;2022-09-13T00:59:38;18.10;84.50
48579;DHT22;34357;51.948;6.132;2022-09-13T01:02:05;18.10;84.30
48579;DHT22;34357;51.948;6.132;2022-09-13T01:04:32;18.00;84.40
48579;DHT22;34357;51.948;6.132;2022-09-13T01:07:02;18.10;84.30
48579;DHT22;34357;51.948;6.132;2022-09-13T01:09:30;18.00;84.10
48579;DHT22;34357;51.948;6.132;2022-09-13T01:12:08;18.10;84.00
48579;DHT22;34357;51.948;6.132;2022-09-13T01:14:38;18.10;83.90
48579;DHT22;34357;51.948;6.132;2022-09-13T01:17:04;18.10;84.00
48579;DHT22;34357;51.948;6.132;2022-09-13T01:19:30;18.10;83.90
48579;DHT22;34357;51.948;6.132;2022-09-13T01:24:58;18.20;83.60
48579;DHT22;34357;51.948;6.132;2022-09-13T01:30:58;18.10;84.40
48579;DHT22;34357;51.948;6.132;2022-09-13T01:33:53;18.10;84.80
48579;DHT22;34357;51.948;6.132;2022-09-13T01:36:46;18.00;85.00
48579;DHT22;34357;51.948;6.132;2022-09-13T01:39:20;18.00;85.00
48579;DHT22;34357;51.948;6.132;2022-09-13T01:42:11;18.00;85.10
48579;DHT22;34357;51.948;6.132;2022-09-13T01:50:16;18.00;85.60
48579;DHT22;34357;51.948;6.132;2022-09-13T01:55:39;18.00;85.30
48579;DHT22;34357;51.948;6.132;2022-09-13T02:01:10;18.00;85.20
48579;DHT22;34357;51.948;6.132;2022-09-13T02:03:57;18.10;84.60
48579;DHT22;34357;51.948;6.132;2022-09-13T02:06:29;18.10;83.80
48579;DHT22;34357;51.948;6.132;2022-09-13T02:09:02;18.10;83.80
48579;DHT22;34357;51.948;6.132;2022-09-13T02:11:31;18.00;83.90
48579;DHT22;34357;51.948;6.132;2022-09-13T02:13:59;18.00;84.10
48579;DHT22;34357;51.948;6.132;2022-09-13T02:16:40;18.00;84.20
48579;DHT22;34357;51.948;6.132;2022-09-13T02:19:18;18.00;84.30
48579;DHT22;34357;51.948;6.132;2022-09-13T02:21:49;17.90;84.40
48579;DHT22;34357;51.948;6.132;2022-09-13T02:24:19;17.90;84.50
48579;DHT22;34357;51.948;6.132;2022-09-13T02:26:49;17.90;84.50
48579;DHT22;34357;51.948;6.132;2022-09-13T02:29:24;17.90;84.50
48579;DHT22;34357;51.948;6.132;2022-09-13T02:32:04;17.90;84.50
48579;DHT22;34357;51.948;6.132;2022-09-13T02:34:39;18.00;84.50
48579;DHT22;34357;51.948;6.132;2022-09-13T02:37:08;17.90;84.20
48579;DHT22;34357;51.948;6.132;2022-09-13T02:39:38;17.90;84.10
48579;DHT22;34357;51.948;6.132;2022-09-13T02:42:30;17.90;84.10
48579;DHT22;34357;51.948;6.132;2022-09-13T02:44:58;17.90;84.20
48579;DHT22;34357;51.948;6.132;2022-09-13T03:00:41;18.00;82.90
48579;DHT22;34357;51.948;6.132;2022-09-13T03:03:10;18.00;83.20
48579;DHT22;34357;51.948;6.132;2022-09-13T03:05:37;18.00;82.70
48579;DHT22;34357;51.948;6.132;2022-09-13T03:08:03;18.00;82.80
48579;DHT22;34357;51.948;6.132;2022-09-13T03:13:52;18.00;83.40
48579;DHT22;34357;51.948;6.132;2022-09-13T03:29:53;17.80;84.80
48579;DHT22;34357;51.948;6.132;2022-09-13T03:33:19;17.80;84.80
48579;DHT22;34357;51.948;6.132;2022-09-13T03:35:49;17.80;84.90
48579;DHT22;34357;51.948;6.132;2022-09-13T03:38:23;17.70;85.10
48579;DHT22;34357;51.948;6.132;2022-09-13T03:40:56;17.70;85.30
48579;DHT22;34357;51.948;6.132;2022-09-13T03:43:27;17.70;85.40
48579;DHT22;34357;51.948;6.132;2022-09-13T03:46:14;17.70;85.60
48579;DHT22;34357;51.948;6.132;2022-09-13T03:48:41;17.80;85.60
48579;DHT22;34357;51.948;6.132;2022-09-13T03:51:08;17.70;85.60
48579;DHT22;34357;51.948;6.132;2022-09-13T03:53:42;17.70;85.80
48579;DHT22;34357;51.948;6.132;2022-09-13T03:56:14;17.70;85.70
48579;DHT22;34357;51.948;6.132;2022-09-13T03:58:40;17.70;85.90
48579;DHT22;34357;51.948;6.132;2022-09-13T04:01:06;17.70;86.10
48579;DHT22;34357;51.948;6.132;2022-09-13T04:03:38;17.70;86.20
48579;DHT22;34357;51.948;6.132;2022-09-13T04:06:04;17.70;86.20
48579;DHT22;34357;51.948;6.132;2022-09-13T04:08:33;17.70;86.00
48579;DHT22;34357;51.948;6.132;2022-09-13T04:10:59;17.70;85.90
48579;DHT22;34357;51.948;6.132;2022-09-13T04:13:25;17.70;85.90
48579;DHT22;34357;51.948;6.132;2022-09-13T04:15:51;17.70;86.00
48579;DHT22;34357;51.948;6.132;2022-09-13T04:18:17;17.70;86.20
48579;DHT22;34357;51.948;6.132;2022-09-13T04:20:43;17.70;86.30
48579;DHT22;34357;51.948;6.132;2022-09-13T04:23:09;17.70;86.50
48579;DHT22;34357;51.948;6.132;2022-09-13T04:25:37;17.60;86.50
48579;DHT22;34357;51.948;6.132;2022-09-13T04:28:03;17.60;86.70
48579;DHT22;34357;51.948;6.132;2022-09-13T04:30:29;17.70;86.80
48579;DHT22;34357;51.948;6.132;2022-09-13T04:32:55;17.60;86.70
48579;DHT22;34357;51.948;6.132;2022-09-13T04:35:21;17.70;86.70
48579;DHT22;34357;51.948;6.132;2022-09-13T04:37:46;17.70;86.70
48579;DHT22;34357;51.948;6.132;2022-09-13T04:40:12;17.60;86.80
48579;DHT22;34357;51.948;6.132;2022-09-13T04:42:39;17.60;86.70
48579;DHT22;34357;51.948;6.132;2022-09-13T04:45:05;17.60;86.60
48579;DHT22;34357;51.948;6.132;2022-09-13T04:47:31;17.70;86.60
48579;DHT22;34357;51.948;6.132;2022-09-13T04:49:57;17.70;86.20
48579;DHT22;34357;51.948;6.132;2022-09-13T04:52:23;17.80;85.60
48579;DHT22;34357;51.948;6.132;2022-09-13T04:54:48;17.90;85.30
48579;DHT22;34357;51.948;6.132;2022-09-13T04:57:15;17.80;84.90
48579;DHT22;34357;51.948;6.132;2022-09-13T04:59:43;17.90;84.30
48579;DHT22;34357;51.948;6.132;2022-09-13T05:02:09;17.80;84.50
48579;DHT22;34357;51.948;6.132;2022-09-13T05:04:35;17.80;84.60
48579;DHT22;34357;51.948;6.132;2022-09-13T05:07:00;17.90;84.60
48579;DHT22;34357;51.948;6.132;2022-09-13T05:09:26;17.90;84.50
48579;DHT22;34357;51.948;6.132;2022-09-13T05:11:52;17.90;84.60
48579;DHT22;34357;51.948;6.132;2022-09-13T05:14:18;17.90;84.60
48579;DHT22;34357;51.948;6.132;2022-09-13T05:16:43;17.90;84.60
48579;DHT22;34357;51.948;6.132;2022-09-13T05:19:10;17.90;84.50
48579;DHT22;34357;51.948;6.132;2022-09-13T05:21:36;17.90;83.70
48579;DHT22;34357;51.948;6.132;2022-09-13T05:24:02;17.90;83.70
48579;DHT22;34357;51.948;6.132;2022-09-13T05:26:29;17.90;83.80
48579;DHT22;34357;51.948;6.132;2022-09-13T05:29:00;17.90;83.70
48579;DHT22;34357;51.948;6.132;2022-09-13T05:31:35;18.00;83.70
48579;DHT22;34357;51.948;6.132;2022-09-13T05:34:07;18.00;83.40
48579;DHT22;34357;51.948;6.132;2022-09-13T05:36:35;17.90;83.30
48579;DHT22;34357;51.948;6.132;2022-09-13T05:39:01;17.90;83.70
48579;DHT22;34357;51.948;6.132;2022-09-13T05:41:27;17.90;83.70
48579;DHT22;34357;51.948;6.132;2022-09-13T05:43:52;17.90;83.50
48579;DHT22;34357;51.948;6.132;2022-09-13T05:46:19;17.90;83.50
48579;DHT22;34357;51.948;6.132;2022-09-13T05:48:46;18.00;83.60
48579;DHT22;34357;51.948;6.132;2022-09-13T05:53:41;18.00;83.70
48579;DHT22;34357;51.948;6.132;2022-09-13T05:56:09;18.00;83.80
48579;DHT22;34357;51.948;6.132;2022-09-13T05:58:38;18.00;83.90
48579;DHT22;34357;51.948;6.132;2022-09-13T06:01:05;18.00;83.80
48579;DHT22;34357;51.948;6.132;2022-09-13T06:03:30;18.10;83.40
48579;DHT22;34357;51.948;6.132;2022-09-13T06:05:56;18.20;83.20
48579;DHT22;34357;51.948;6.132;2022-09-13T06:08:27;18.20;83.40
48579;DHT22;34357;51.948;6.132;2022-09-13T06:10:58;18.30;83.20
48579;DHT22;34357;51.948;6.132;2022-09-13T06:13:25;18.30;82.80
48579;DHT22;34357;51.948;6.132;2022-09-13T06:15:51;18.30;82.80
48579;DHT22;34357;51.948;6.132;2022-09-13T06:18:17;18.40;82.20
48579;DHT22;34357;51.948;6.132;2022-09-13T06:20:44;18.40;82.10
48579;DHT22;34357;51.948;6.132;2022-09-13T06:23:10;18.50;82.00
48579;DHT22;34357;51.948;6.132;2022-09-13T06:25:35;18.50;81.90
48579;DHT22;34357;51.948;6.132;2022-09-13T06:28:02;18.60;82.30
48579;DHT22;34357;51.948;6.132;2022-09-13T06:30:28;18.60;82.30
48579;DHT22;34357;51.948;6.132;2022-09-13T06:32:55;18.70;82.00
48579;DHT22;34357;51.948;6.132;2022-09-13T06:35:21;18.70;81.70
48579;DHT22;34357;51.948;6.132;2022-09-13T06:37:47;18.70;81.50
48579;DHT22;34357;51.948;6.132;2022-09-13T06:40:12;18.80;82.10
48579;DHT22;34357;51.948;6.132;2022-09-13T06:42:39;18.90;82.00
48579;DHT22;34357;51.948;6.132;2022-09-13T06:45:05;19.00;81.70
48579;DHT22;34357;51.948;6.132;2022-09-13T06:47:31;19.10;81.10
48579;DHT22;34357;51.948;6.132;2022-09-13T06:49:57;19.10;80.50
48579;DHT22;34357;51.948;6.132;2022-09-13T06:52:23;19.10;80.60
48579;DHT22;34357;51.948;6.132;2022-09-13T06:54:49;19.20;80.10
48579;DHT22;34357;51.948;6.132;2022-09-13T06:57:15;19.30;80.00
48579;DHT22;34357;51.948;6.132;2022-09-13T06:59:41;19.30;79.00
48579;DHT22;34357;51.948;6.132;2022-09-13T07:02:08;19.40;78.60
48579;DHT22;34357;51.948;6.132;2022-09-13T07:04:33;19.50;78.90
48579;DHT22;34357;51.948;6.132;2022-09-13T07:07:00;19.50;78.50
48579;DHT22;34357;51.948;6.132;2022-09-13T07:09:26;19.50;78.50
48579;DHT22;34357;51.948;6.132;2022-09-13T07:11:54;19.50;78.80
48579;DHT22;34357;51.948;6.132;2022-09-13T07:14:26;19.60;79.10
48579;DHT22;34357;51.948;6.132;2022-09-13T07:16:52;19.60;78.60
48579;DHT22;34357;51.948;6.132;2022-09-13T07:19:20;19.70;78.70
48579;DHT22;34357;51.948;6.132;2022-09-13T07:21:48;19.80;79.10
48579;DHT22;34357;51.948;6.132;2022-09-13T07:24:15;19.80;78.50
48579;DHT22;34357;51.948;6.132;2022-09-13T07:26:41;19.90;78.40
48579;DHT22;34357;51.948;6.132;2022-09-13T07:29:09;20.00;78.10
48579;DHT22;34357;51.948;6.132;2022-09-13T07:31:37;20.10;77.90
48579;DHT22;34357;51.948;6.132;2022-09-13T07:34:17;20.20;77.90
48579;DHT22;34357;51.948;6.132;2022-09-13T07:36:44;20.20;76.90
48579;DHT22;34357;51.948;6.132;2022-09-13T07:39:12;20.20;77.30
48579;DHT22;34357;51.948;6.132;2022-09-13T07:41:38;20.20;77.50
48579;DHT22;34357;51.948;6.132;2022-09-13T07:44:04;20.40;77.40
48579;DHT22;34357;51.948;6.132;2022-09-13T07:46:33;20.50;77.60
48579;DHT22;34357;51.948;6.132;2022-09-13T07:49:02;20.70;77.20
48579;DHT22;34357;51.948;6.132;2022-09-13T07:51:33;20.90;75.50
48579;DHT22;34357;51.948;6.132;2022-09-13T07:54:04;21.10;75.60
48579;DHT22;34357;51.948;6.132;2022-09-13T07:56:34;21.30;75.20
48579;DHT22;34357;51.948;6.132;2022-09-13T07:59:04;21.40;75.30
48579;DHT22;34357;51.948;6.132;2022-09-13T08:01:35;21.80;75.50
48579;DHT22;34357;51.948;6.132;2022-09-13T08:04:06;21.90;73.70
48579;DHT22;34357;51.948;6.132;2022-09-13T08:06:33;22.00;73.30
48579;DHT22;34357;51.948;6.132;2022-09-13T08:08:59;22.00;74.20
48579;DHT22;34357;51.948;6.132;2022-09-13T08:11:29;22.10;74.10
48579;DHT22;34357;51.948;6.132;2022-09-13T08:13:56;21.90;73.90
48579;DHT22;34357;51.948;6.132;2022-09-13T08:16:23;21.90;74.80
48579;DHT22;34357;51.948;6.132;2022-09-13T08:18:51;21.90;74.70
48579;DHT22;34357;51.948;6.132;2022-09-13T08:21:17;22.00;75.10
48579;DHT22;34357;51.948;6.132;2022-09-13T08:23:43;22.10;75.10
48579;DHT22;34357;51.948;6.132;2022-09-13T08:26:09;22.20;74.60
48579;DHT22;34357;51.948;6.132;2022-09-13T08:28:40;22.40;75.20
48579;DHT22;34357;51.948;6.132;2022-09-13T08:31:11;22.20;74.90
48579;DHT22;34357;51.948;6.132;2022-09-13T08:33:38;22.30;74.20
48579;DHT22;34357;51.948;6.132;2022-09-13T08:36:04;22.40;75.40
48579;DHT22;34357;51.948;6.132;2022-09-13T08:38:31;22.50;74.90
48579;DHT22;34357;51.948;6.132;2022-09-13T08:41:00;22.80;73.90
48579;DHT22;34357;51.948;6.132;2022-09-13T08:45:59;22.90;72.50
48579;DHT22;34357;51.948;6.132;2022-09-13T08:48:35;23.00;73.30
48579;DHT22;34357;51.948;6.132;2022-09-13T08:51:06;23.00;72.30
48579;DHT22;34357;51.948;6.132;2022-09-13T08:53:46;23.10;72.00
48579;DHT22;34357;51.948;6.132;2022-09-13T08:56:18;23.10;72.70
48579;DHT22;34357;51.948;6.132;2022-09-13T09:06:35;23.60;71.10
48579;DHT22;34357;51.948;6.132;2022-09-13T09:09:11;23.80;70.40
48579;DHT22;34357;51.948;6.132;2022-09-13T09:11:57;23.70;70.30
48579;DHT22;34357;51.948;6.132;2022-09-13T09:14:34;23.40;71.40
48579;DHT22;34357;51.948;6.132;2022-09-13T09:17:06;23.00;72.30
48579;DHT22;34357;51.948;6.132;2022-09-13T09:19:48;22.90;73.50
48579;DHT22;34357;51.948;6.132;2022-09-13T09:22:19;23.40;72.10
48579;DHT22;34357;51.948;6.132;2022-09-13T09:24:53;23.40;72.10
48579;DHT22;34357;51.948;6.132;2022-09-13T09:27:20;23.50;71.40
48579;DHT22;34357;51.948;6.132;2022-09-13T09:29:54;23.50;72.30
48579;DHT22;34357;51.948;6.132;2022-09-13T09:37:33;22.80;73.40
48579;DHT22;34357;51.948;6.132;2022-09-13T09:40:03;22.80;73.80
48579;DHT22;34357;51.948;6.132;2022-09-13T09:42:45;22.80;73.80
48579;DHT22;34357;51.948;6.132;2022-09-13T09:45:32;22.70;73.70
48579;DHT22;34357;51.948;6.132;2022-09-13T09:48:04;22.60;74.50
48579;DHT22;34357;51.948;6.132;2022-09-13T09:50:35;22.60;74.70
48579;DHT22;34357;51.948;6.132;2022-09-13T09:53:24;22.40;74.50
48579;DHT22;34357;51.948;6.132;2022-09-13T09:56:05;22.40;75.00
48579;DHT22;34357;51.948;6.132;2022-09-13T09:58:39;22.40;75.40
48579;DHT22;34357;51.948;6.132;2022-09-13T10:01:19;22.40;75.10
48579;DHT22;34357;51.948;6.132;2022-09-13T10:03:56;22.40;74.80
48579;DHT22;34357;51.948;6.132;2022-09-13T10:06:27;22.40;74.60
48579;DHT22;34357;51.948;6.132;2022-09-13T10:09:04;22.30;75.50
48579;DHT22;34357;51.948;6.132;2022-09-13T10:11:52;22.20;75.70
48579;DHT22;34357;51.948;6.132;2022-09-13T10:17:15;22.10;75.70
48579;DHT22;34357;51.948;6.132;2022-09-13T10:19:59;22.30;75.70
48579;DHT22;34357;51.948;6.132;2022-09-13T10:22:31;22.40;74.20
48579;DHT22;34357;51.948;6.132;2022-09-13T10:27:47;22.40;73.60
48579;DHT22;34357;51.948;6.132;2022-09-13T10:30:41;22.50;75.10
48579;DHT22;34357;51.948;6.132;2022-09-13T10:33:28;22.80;74.80
48579;DHT22;34357;51.948;6.132;2022-09-13T10:35:58;23.00;73.30
48579;DHT22;34357;51.948;6.132;2022-09-13T10:38:31;23.00;72.20
48579;DHT22;34357;51.948;6.132;2022-09-13T10:41:00;23.20;72.50
48579;DHT22;34357;51.948;6.132;2022-09-13T10:43:29;23.30;70.90
48579;DHT22;34357;51.948;6.132;2022-09-13T10:45:56;23.50;71.40
48579;DHT22;34357;51.948;6.132;2022-09-13T10:48:22;23.50;70.20
48579;DHT22;34357;51.948;6.132;2022-09-13T10:56:40;23.90;69.20
48579;DHT22;34357;51.948;6.132;2022-09-13T10:59:26;24.00;68.50
48579;DHT22;34357;51.948;6.132;2022-09-13T11:05:31;23.60;69.60
48579;DHT22;34357;51.948;6.132;2022-09-13T11:10:45;23.60;69.20
48579;DHT22;34357;51.948;6.132;2022-09-13T11:13:23;23.80;68.20
48579;DHT22;34357;51.948;6.132;2022-09-13T11:16:17;24.20;66.70
48579;DHT22;34357;51.948;6.132;2022-09-13T11:27:22;24.10;65.40
48579;DHT22;34357;51.948;6.132;2022-09-13T11:38:53;24.20;65.00
48579;DHT22;34357;51.948;6.132;2022-09-13T11:55:34;24.30;65.90
48579;DHT22;34357;51.948;6.132;2022-09-13T11:58:05;24.40;66.60
48579;DHT22;34357;51.948;6.132;2022-09-13T12:00:44;24.40;65.50
48579;DHT22;34357;51.948;6.132;2022-09-13T12:06:10;24.20;65.90
48579;DHT22;34357;51.948;6.132;2022-09-13T12:08:41;24.10;66.90
48579;DHT22;34357;51.948;6.132;2022-09-13T12:11:25;24.00;66.00
48579;DHT22;34357;51.948;6.132;2022-09-13T12:13:56;24.10;66.70
48579;DHT22;34357;51.948;6.132;2022-09-13T12:16:47;24.30;65.40
48579;DHT22;34357;51.948;6.132;2022-09-13T12:19:26;24.60;65.70
48579;DHT22;34357;51.948;6.132;2022-09-13T12:21:56;24.90;63.20
48579;DHT22;34357;51.948;6.132;2022-09-13T12:24:36;25.10;63.20
48579;DHT22;34357;51.948;6.132;2022-09-13T12:27:06;25.00;62.50
48579;DHT22;34357;51.948;6.132;2022-09-13T12:29:35;24.70;63.40
48579;DHT22;34357;51.948;6.132;2022-09-13T12:32:06;24.70;63.30
48579;DHT22;34357;51.948;6.132;2022-09-13T12:43:23;24.40;64.20
48579;DHT22;34357;51.948;6.132;2022-09-13T12:54:10;24.20;63.30
48579;DHT22;34357;51.948;6.132;2022-09-13T13:02:35;24.90;62.30
48579;DHT22;34357;51.948;6.132;2022-09-13T13:05:05;24.90;61.90
48579;DHT22;34357;51.948;6.132;2022-09-13T13:07:40;25.00;61.10
48579;DHT22;34357;51.948;6.132;2022-09-13T13:10:27;25.00;62.70
48579;DHT22;34357;51.948;6.132;2022-09-13T13:12:55;25.20;61.80
48579;DHT22;34357;51.948;6.132;2022-09-13T13:17:53;25.20;60.30
48579;DHT22;34357;51.948;6.132;2022-09-13T13:20:38;25.10;60.40
48579;DHT22;34357;51.948;6.132;2022-09-13T13:36:29;25.10;60.10
48579;DHT22;34357;51.948;6.132;2022-09-13T13:39:01;25.20;59.60
48579;DHT22;34357;51.948;6.132;2022-09-13T13:46:40;25.30;58.60
48579;DHT22;34357;51.948;6.132;2022-09-13T13:57:30;24.40;61.00
48579;DHT22;34357;51.948;6.132;2022-09-13T14:16:37;24.30;60.60
48579;DHT22;34357;51.948;6.132;2022-09-13T14:21:40;24.40;59.50
48579;DHT22;34357;51.948;6.132;2022-09-13T14:26:49;24.40;57.80
48579;DHT22;34357;51.948;6.132;2022-09-13T14:29:16;24.40;56.50
48579;DHT22;34357;51.948;6.132;2022-09-13T14:31:48;24.50;54.80
48579;DHT22;34357;51.948;6.132;2022-09-13T14:34:32;24.60;54.50
48579;DHT22;34357;51.948;6.132;2022-09-13T14:37:00;24.70;56.30
48579;DHT22;34357;51.948;6.132;2022-09-13T14:39:26;24.70;55.90
48579;DHT22;34357;51.948;6.132;2022-09-13T14:42:13;24.50;57.10
48579;DHT22;34357;51.948;6.132;2022-09-13T14:44:43;24.40;57.00
48579;DHT22;34357;51.948;6.132;2022-09-13T14:49:46;24.10;58.10
48579;DHT22;34357;51.948;6.132;2022-09-13T14:52:25;24.00;59.20
48579;DHT22;34357;51.948;6.132;2022-09-13T14:54:59;23.90;59.40
48579;DHT22;34357;51.948;6.132;2022-09-13T14:57:33;23.70;59.30
48579;DHT22;34357;51.948;6.132;2022-09-13T15:00:05;23.60;60.50
48579;DHT22;34357;51.948;6.132;2022-09-13T15:02:38;23.50;60.60
48579;DHT22;34357;51.948;6.132;2022-09-13T15:05:11;23.60;60.10
48579;DHT22;34357;51.948;6.132;2022-09-13T15:07:39;23.70;59.60
48579;DHT22;34357;51.948;6.132;2022-09-13T15:12:31;24.10;57.50
48579;DHT22;34357;51.948;6.132;2022-09-13T15:18:05;24.40;57.50
48579;DHT22;34357;51.948;6.132;2022-09-13T15:23:26;24.30;55.30
48579;DHT22;34357;51.948;6.132;2022-09-13T15:31:18;23.80;56.60
48579;DHT22;34357;51.948;6.132;2022-09-13T15:33:44;23.80;57.30
48579;DHT22;34357;51.948;6.132;2022-09-13T15:39:01;23.70;57.10
48579;DHT22;34357;51.948;6.132;2022-09-13T15:41:29;23.70;56.60
48579;DHT22;34357;51.948;6.132;2022-09-13T15:43:57;23.70;58.10
48579;DHT22;34357;51.948;6.132;2022-09-13T15:46:22;23.70;57.70
48579;DHT22;34357;51.948;6.132;2022-09-13T15:48:54;23.60;56.90
48579;DHT22;34357;51.948;6.132;2022-09-13T15:51:20;23.70;57.00
48579;DHT22;34357;51.948;6.132;2022-09-13T15:53:48;23.70;57.70
48579;DHT22;34357;51.948;6.132;2022-09-13T15:56:21;23.80;57.80
48579;DHT22;34357;51.948;6.132;2022-09-13T15:58:49;24.00;58.60
48579;DHT22;34357;51.948;6.132;2022-09-13T16:01:16;24.20;58.50
48579;DHT22;34357;51.948;6.132;2022-09-13T16:03:42;24.40;56.70
48579;DHT22;34357;51.948;6.132;2022-09-13T16:06:08;24.40;57.20
48579;DHT22;34357;51.948;6.132;2022-09-13T16:08:38;24.40;57.00
48579;DHT22;34357;51.948;6.132;2022-09-13T16:11:04;24.20;56.30
48579;DHT22;34357;51.948;6.132;2022-09-13T16:13:30;24.00;56.50
48579;DHT22;34357;51.948;6.132;2022-09-13T16:15:56;23.90;56.00
48579;DHT22;34357;51.948;6.132;2022-09-13T16:18:22;23.70;57.00
48579;DHT22;34357;51.948;6.132;2022-09-13T16:20:48;23.50;58.40
48579;DHT22;34357;51.948;6.132;2022-09-13T16:23:14;23.30;59.00
48579;DHT22;34357;51.948;6.132;2022-09-13T16:25:40;23.20;58.90
48579;DHT22;34357;51.948;6.132;2022-09-13T16:28:06;23.00;59.60
48579;DHT22;34357;51.948;6.132;2022-09-13T16:30:33;22.90;60.10
48579;DHT22;34357;51.948;6.132;2022-09-13T16:32:59;22.90;60.20
48579;DHT22;34357;51.948;6.132;2022-09-13T16:35:27;22.80;60.50
48579;DHT22;34357;51.948;6.132;2022-09-13T16:37:54;22.70;60.30
48579;DHT22;34357;51.948;6.132;2022-09-13T16:40:20;22.50;60.90
48579;DHT22;34357;51.948;6.132;2022-09-13T16:42:46;22.40;60.30
48579;DHT22;34357;51.948;6.132;2022-09-13T16:45:12;22.40;60.40
48579;DHT22;34357;51.948;6.132;2022-09-13T16:47:38;22.30;61.00
48579;DHT22;34357;51.948;6.132;2022-09-13T16:50:06;22.10;61.30
48579;DHT22;34357;51.948;6.132;2022-09-13T16:52:33;22.10;61.30
48579;DHT22;34357;51.948;6.132;2022-09-13T16:55:00;22.00;60.80
48579;DHT22;34357;51.948;6.132;2022-09-13T16:57:26;21.90;61.10
48579;DHT22;34357;51.948;6.132;2022-09-13T16:59:52;21.90;61.30
48579;DHT22;34357;51.948;6.132;2022-09-13T17:02:19;21.90;61.30
48579;DHT22;34357;51.948;6.132;2022-09-13T17:04:45;21.80;61.90
48579;DHT22;34357;51.948;6.132;2022-09-13T17:07:12;21.80;61.80
48579;DHT22;34357;51.948;6.132;2022-09-13T17:09:38;21.70;62.10
48579;DHT22;34357;51.948;6.132;2022-09-13T17:12:06;21.50;62.00
48579;DHT22;34357;51.948;6.132;2022-09-13T17:14:32;21.40;61.90
48579;DHT22;34357;51.948;6.132;2022-09-13T17:16:58;21.30;62.20
48579;DHT22;34357;51.948;6.132;2022-09-13T17:19:27;21.20;62.20
48579;DHT22;34357;51.948;6.132;2022-09-13T17:21:56;21.00;61.80
48579;DHT22;34357;51.948;6.132;2022-09-13T17:24:23;21.00;61.80
48579;DHT22;34357;51.948;6.132;2022-09-13T17:26:50;21.00;62.40
48579;DHT22;34357;51.948;6.132;2022-09-13T17:29:15;20.90;62.50
48579;DHT22;34357;51.948;6.132;2022-09-13T17:31:41;20.80;63.40
48579;DHT22;34357;51.948;6.132;2022-09-13T17:34:08;20.70;63.70
48579;DHT22;34357;51.948;6.132;2022-09-13T17:36:35;20.70;63.40
48579;DHT22;34357;51.948;6.132;2022-09-13T17:39:00;20.60;63.50
48579;DHT22;34357;51.948;6.132;2022-09-13T17:41:26;20.50;63.50
48579;DHT22;34357;51.948;6.132;2022-09-13T17:43:53;20.40;63.70
48579;DHT22;34357;51.948;6.132;2022-09-13T17:46:21;20.40;64.20
48579;DHT22;34357;51.948;6.132;2022-09-13T17:48:51;20.30;64.60
48579;DHT22;34357;51.948;6.132;2022-09-13T17:51:19;20.30;64.10
48579;DHT22;34357;51.948;6.132;2022-09-13T17:53:50;20.20;63.50
48579;DHT22;34357;51.948;6.132;2022-09-13T17:56:21;20.10;64.20
48579;DHT22;34357;51.948;6.132;2022-09-13T17:58:48;20.00;64.00
48579;DHT22;34357;51.948;6.132;2022-09-13T18:01:14;19.90;64.10
48579;DHT22;34357;51.948;6.132;2022-09-13T18:03:40;19.90;64.80
48579;DHT22;34357;51.948;6.132;2022-09-13T18:06:07;19.80;65.10
48579;DHT22;34357;51.948;6.132;2022-09-13T18:08:35;19.80;65.30
48579;DHT22;34357;51.948;6.132;2022-09-13T18:11:04;19.70;65.90
48579;DHT22;34357;51.948;6.132;2022-09-13T18:13:30;19.60;65.70
48579;DHT22;34357;51.948;6.132;2022-09-13T18:16:10;19.60;66.50
48579;DHT22;34357;51.948;6.132;2022-09-13T18:18:37;19.50;66.10
48579;DHT22;34357;51.948;6.132;2022-09-13T18:21:04;19.50;65.80
48579;DHT22;34357;51.948;6.132;2022-09-13T18:23:29;19.50;66.40
48579;DHT22;34357;51.948;6.132;2022-09-13T18:26:09;19.40;65.90
48579;DHT22;34357;51.948;6.132;2022-09-13T18:28:35;19.40;66.70
48579;DHT22;34357;51.948;6.132;2022-09-13T18:31:03;19.40;66.30
48579;DHT22;34357;51.948;6.132;2022-09-13T18:33:33;19.30;66.10
48579;DHT22;34357;51.948;6.132;2022-09-13T18:36:04;19.30;66.60
48579;DHT22;34357;51.948;6.132;2022-09-13T18:38:33;19.20;66.30
48579;DHT22;34357;51.948;6.132;2022-09-13T18:41:05;19.30;66.50
48579;DHT22;34357;51.948;6.132;2022-09-13T18:43:32;19.20;66.60
48579;DHT22;34357;51.948;6.132;2022-09-13T18:46:00;19.20;66.00
48579;DHT22;34357;51.948;6.132;2022-09-13T18:48:30;19.10;66.40
48579;DHT22;34357;51.948;6.132;2022-09-13T18:50:56;19.20;66.30
48579;DHT22;34357;51.948;6.132;2022-09-13T18:53:23;19.00;66.90
48579;DHT22;34357;51.948;6.132;2022-09-13T18:55:48;19.00;67.30
48579;DHT22;34357;51.948;6.132;2022-09-13T18:58:14;19.00;67.00
48579;DHT22;34357;51.948;6.132;2022-09-13T19:00:41;18.90;67.60
48579;DHT22;34357;51.948;6.132;2022-09-13T19:03:08;18.90;67.80
48579;DHT22;34357;51.948;6.132;2022-09-13T19:05:37;18.90;68.30
48579;DHT22;34357;51.948;6.132;2022-09-13T19:08:08;18.80;68.30
48579;DHT22;34357;51.948;6.132;2022-09-13T19:10:36;18.80;68.90
48579;DHT22;34357;51.948;6.132;2022-09-13T19:13:03;18.70;68.60
48579;DHT22;34357;51.948;6.132;2022-09-13T19:15:30;18.60;69.00
48579;DHT22;34357;51.948;6.132;2022-09-13T19:17:56;18.60;69.40